sensor_id;sensor_type;location;lat;lon;timestamp;pressure;altitude;pressure_sealevel;temperature;humidity
75656;BME280;64252;51.094;13.714;2022-12-20T00:02:21;101117.50;;;-0.30;88.16
75656;BME280;64252;51.094;13.714;2022-12-20T00:04:46;101109.41;;;-0.26;88.01
75656;BME280;64252;51.094;13.714;2022-12-20T00:07:12;101115.03;;;-0.31;88.01
75656;BME280;64252;51.094;13.714;2022-12-20T00:09:37;101111.50;;;-0.37;88.82
75656;BME280;64252;51.094;13.714;2022-12-20T00:12:03;101098.38;;;-0.31;88.16
75656;BME280;64252;51.094;13.714;2022-12-20T00:14:29;101101.44;;;-0.33;88.36
75656;BME280;64252;51.094;13.714;2022-12-20T00:16:54;101081.50;;;-0.35;88.46
75656;BME280;64252;51.094;13.714;2022-12-20T00:19:20;101079.25;;;-0.33;88.20
75656;BME280;64252;51.094;13.714;2022-12-20T00:21:45;101075.59;;;-0.28;87.80
75656;BME280;64252;51.094;13.714;2022-12-20T00:24:11;101082.63;;;-0.17;87.25
75656;BME280;64252;51.094;13.714;2022-12-20T00:26:36;101094.69;;;-0.27;87.52
75656;BME280;64252;51.094;13.714;2022-12-20T00:29:04;101083.66;;;-0.32;88.38
75656;BME280;64252;51.094;13.714;2022-12-20T00:31:30;101080.91;;;-0.32;87.96
75656;BME280;64252;51.094;13.714;2022-12-20T00:33:58;101056.63;;;-0.40;88.22
75656;BME280;64252;51.094;13.714;2022-12-20T00:36:25;101065.97;;;-0.36;88.32
75656;BME280;64252;51.094;13.714;2022-12-20T00:38:53;101071.03;;;-0.38;88.19
75656;BME280;64252;51.094;13.714;2022-12-20T00:41:22;101069.94;;;-0.42;88.79
75656;BME280;64252;51.094;13.714;2022-12-20T00:43:49;101071.16;;;-0.48;89.17
75656;BME280;64252;51.094;13.714;2022-12-20T00:46:16;101059.53;;;-0.50;88.68
75656;BME280;64252;51.094;13.714;2022-12-20T00:48:42;101071.44;;;-0.50;89.42
75656;BME280;64252;51.094;13.714;2022-12-20T00:51:13;101060.19;;;-0.58;89.48
75656;BME280;64252;51.094;13.714;2022-12-20T00:53:39;101061.88;;;-0.57;89.99
75656;BME280;64252;51.094;13.714;2022-12-20T00:56:06;101056.81;;;-0.55;89.41
75656;BME280;64252;51.094;13.714;2022-12-20T00:58:33;101054.97;;;-0.41;89.16
75656;BME280;64252;51.094;13.714;2022-12-20T01:01:00;101056.16;;;-0.47;89.50
75656;BME280;64252;51.094;13.714;2022-12-20T01:03:26;101050.44;;;-0.37;88.83
75656;BME280;64252;51.094;13.714;2022-12-20T01:06:00;101041.28;;;-0.19;88.10
75656;BME280;64252;51.094;13.714;2022-12-20T01:08:27;101042.56;;;-0.11;88.24
75656;BME280;64252;51.094;13.714;2022-12-20T01:13:32;101038.56;;;0.14;87.21
75656;BME280;64252;51.094;13.714;2022-12-20T01:16:10;101037.31;;;0.20;87.02
75656;BME280;64252;51.094;13.714;2022-12-20T01:18:36;101030.56;;;0.26;87.32
75656;BME280;64252;51.094;13.714;2022-12-20T01:21:04;101028.69;;;0.21;87.54
75656;BME280;64252;51.094;13.714;2022-12-20T01:23:31;101040.63;;;0.22;87.82
75656;BME280;64252;51.094;13.714;2022-12-20T01:26:00;101036.13;;;0.26;87.73
75656;BME280;64252;51.094;13.714;2022-12-20T01:28:28;101038.97;;;0.21;87.84
75656;BME280;64252;51.094;13.714;2022-12-20T01:30:53;101057.72;;;0.29;87.87
75656;BME280;64252;51.094;13.714;2022-12-20T01:33:19;101062.03;;;0.21;87.49
75656;BME280;64252;51.094;13.714;2022-12-20T01:36:07;101057.72;;;0.29;88.07
75656;BME280;64252;51.094;13.714;2022-12-20T01:38:33;101046.41;;;0.25;87.95
75656;BME280;64252;51.094;13.714;2022-12-20T01:41:00;101048.88;;;0.27;87.54
75656;BME280;64252;51.094;13.714;2022-12-20T01:46:11;101054.44;;;0.27;87.61
75656;BME280;64252;51.094;13.714;2022-12-20T01:48:37;101043.50;;;0.17;88.51
75656;BME280;64252;51.094;13.714;2022-12-20T01:51:03;101049.25;;;0.20;88.33
75656;BME280;64252;51.094;13.714;2022-12-20T01:53:30;101053.97;;;0.20;88.79
75656;BME280;64252;51.094;13.714;2022-12-20T01:55:59;101046.91;;;0.14;88.91
75656;BME280;64252;51.094;13.714;2022-12-20T01:58:28;101046.59;;;0.29;87.93
75656;BME280;64252;51.094;13.714;2022-12-20T02:00:54;101043.75;;;0.34;88.03
75656;BME280;64252;51.094;13.714;2022-12-20T02:03:19;101048.91;;;0.40;88.02
75656;BME280;64252;51.094;13.714;2022-12-20T02:05:45;101033.91;;;0.41;87.41
75656;BME280;64252;51.094;13.714;2022-12-20T02:08:13;101028.75;;;0.49;87.83
75656;BME280;64252;51.094;13.714;2022-12-20T02:16:25;101029.38;;;0.59;87.06
75656;BME280;64252;51.094;13.714;2022-12-20T02:19:02;101026.00;;;0.62;87.21
75656;BME280;64252;51.094;13.714;2022-12-20T02:21:54;101025.28;;;0.70;86.89
75656;BME280;64252;51.094;13.714;2022-12-20T02:27:29;101035.16;;;0.63;86.30
75656;BME280;64252;51.094;13.714;2022-12-20T02:30:08;101037.44;;;0.61;86.86
75656;BME280;64252;51.094;13.714;2022-12-20T02:32:39;101029.69;;;0.58;86.68
75656;BME280;64252;51.094;13.714;2022-12-20T02:35:09;101032.78;;;0.56;86.44
75656;BME280;64252;51.094;13.714;2022-12-20T02:37:45;101032.25;;;0.54;86.74
75656;BME280;64252;51.094;13.714;2022-12-20T02:40:17;101048.94;;;0.54;86.64
75656;BME280;64252;51.094;13.714;2022-12-20T02:42:44;101047.91;;;0.50;86.46
75656;BME280;64252;51.094;13.714;2022-12-20T02:45:10;101044.00;;;0.51;86.71
75656;BME280;64252;51.094;13.714;2022-12-20T02:50:08;101034.72;;;0.42;87.63
75656;BME280;64252;51.094;13.714;2022-12-20T02:52:35;101031.41;;;0.40;87.89
75656;BME280;64252;51.094;13.714;2022-12-20T02:55:02;101017.53;;;0.40;87.34
75656;BME280;64252;51.094;13.714;2022-12-20T02:57:44;101029.56;;;0.35;87.55
75656;BME280;64252;51.094;13.714;2022-12-20T03:00:15;101015.75;;;0.30;88.43
75656;BME280;64252;51.094;13.714;2022-12-20T03:02:43;101021.09;;;0.27;88.60
75656;BME280;64252;51.094;13.714;2022-12-20T03:05:29;101020.66;;;0.20;89.08
75656;BME280;64252;51.094;13.714;2022-12-20T03:07:56;101033.00;;;0.14;89.09
75656;BME280;64252;51.094;13.714;2022-12-20T03:10:24;101017.47;;;0.13;88.87
75656;BME280;64252;51.094;13.714;2022-12-20T03:12:50;101012.63;;;0.05;89.63
75656;BME280;64252;51.094;13.714;2022-12-20T03:15:16;101009.59;;;0.01;90.20
75656;BME280;64252;51.094;13.714;2022-12-20T03:17:42;101011.78;;;0.04;89.56
75656;BME280;64252;51.094;13.714;2022-12-20T03:20:08;101016.94;;;0.11;89.58
75656;BME280;64252;51.094;13.714;2022-12-20T03:22:35;101006.16;;;0.09;88.95
75656;BME280;64252;51.094;13.714;2022-12-20T03:25:01;101005.00;;;0.10;88.86
75656;BME280;64252;51.094;13.714;2022-12-20T03:27:28;101001.94;;;0.12;89.10
75656;BME280;64252;51.094;13.714;2022-12-20T03:29:56;101019.13;;;0.14;88.87
75656;BME280;64252;51.094;13.714;2022-12-20T03:32:21;101012.88;;;0.22;88.00
75656;BME280;64252;51.094;13.714;2022-12-20T03:34:47;101006.69;;;0.25;87.63
75656;BME280;64252;51.094;13.714;2022-12-20T03:37:16;101003.22;;;0.33;87.61
75656;BME280;64252;51.094;13.714;2022-12-20T03:39:42;101008.16;;;0.36;87.95
75656;BME280;64252;51.094;13.714;2022-12-20T03:42:09;100995.22;;;0.45;87.37
75656;BME280;64252;51.094;13.714;2022-12-20T03:44:35;100996.25;;;0.49;87.23
75656;BME280;64252;51.094;13.714;2022-12-20T03:47:00;100998.00;;;0.45;87.35
75656;BME280;64252;51.094;13.714;2022-12-20T03:49:26;101002.19;;;0.42;87.82
75656;BME280;64252;51.094;13.714;2022-12-20T03:51:52;100993.34;;;0.40;87.13
75656;BME280;64252;51.094;13.714;2022-12-20T03:54:17;100992.53;;;0.40;86.86
75656;BME280;64252;51.094;13.714;2022-12-20T03:57:01;101007.34;;;0.35;87.52
75656;BME280;64252;51.094;13.714;2022-12-20T03:59:29;100998.09;;;0.40;87.60
75656;BME280;64252;51.094;13.714;2022-12-20T04:01:55;100989.84;;;0.35;88.00
75656;BME280;64252;51.094;13.714;2022-12-20T04:04:21;100992.53;;;0.40;87.79
75656;BME280;64252;51.094;13.714;2022-12-20T04:06:47;100996.34;;;0.44;87.17
75656;BME280;64252;51.094;13.714;2022-12-20T04:09:13;100984.09;;;0.45;87.35
75656;BME280;64252;51.094;13.714;2022-12-20T04:11:45;100987.50;;;0.42;87.29
75656;BME280;64252;51.094;13.714;2022-12-20T04:14:16;100993.56;;;0.44;87.65
75656;BME280;64252;51.094;13.714;2022-12-20T04:16:42;100995.75;;;0.47;87.11
75656;BME280;64252;51.094;13.714;2022-12-20T04:19:09;100995.41;;;0.49;87.65
75656;BME280;64252;51.094;13.714;2022-12-20T04:21:41;100986.16;;;0.53;87.17
75656;BME280;64252;51.094;13.714;2022-12-20T04:24:07;100995.53;;;0.57;87.58
75656;BME280;64252;51.094;13.714;2022-12-20T04:26:41;100991.13;;;0.56;87.37
75656;BME280;64252;51.094;13.714;2022-12-20T04:29:08;100991.13;;;0.56;87.84
75656;BME280;64252;51.094;13.714;2022-12-20T04:31:34;100983.91;;;0.55;87.87
75656;BME280;64252;51.094;13.714;2022-12-20T04:34:00;100985.56;;;0.56;88.27
75656;BME280;64252;51.094;13.714;2022-12-20T04:36:29;100981.63;;;0.57;88.08
75656;BME280;64252;51.094;13.714;2022-12-20T04:38:57;100993.78;;;0.61;88.04
75656;BME280;64252;51.094;13.714;2022-12-20T04:41:23;100978.75;;;0.62;87.49
75656;BME280;64252;51.094;13.714;2022-12-20T04:43:56;100980.50;;;0.58;88.25
75656;BME280;64252;51.094;13.714;2022-12-20T04:46:25;100978.34;;;0.55;88.54
75656;BME280;64252;51.094;13.714;2022-12-20T04:48:54;100989.38;;;0.60;88.13
75656;BME280;64252;51.094;13.714;2022-12-20T04:51:19;100984.63;;;0.61;87.58
75656;BME280;64252;51.094;13.714;2022-12-20T04:53:45;100986.06;;;0.58;87.89
75656;BME280;64252;51.094;13.714;2022-12-20T04:56:46;100981.84;;;0.61;88.31
75656;BME280;64252;51.094;13.714;2022-12-20T04:59:17;100966.59;;;0.58;88.25
75656;BME280;64252;51.094;13.714;2022-12-20T05:01:45;100968.88;;;0.56;88.44
75656;BME280;64252;51.094;13.714;2022-12-20T05:04:16;100972.78;;;0.55;88.78
75656;BME280;64252;51.094;13.714;2022-12-20T05:06:42;100980.09;;;0.51;89.12
75656;BME280;64252;51.094;13.714;2022-12-20T05:09:07;100967.34;;;0.50;88.96
75656;BME280;64252;51.094;13.714;2022-12-20T05:11:34;100962.69;;;0.46;89.44
75656;BME280;64252;51.094;13.714;2022-12-20T05:14:01;100957.75;;;0.42;89.67
75656;BME280;64252;51.094;13.714;2022-12-20T05:16:27;100961.88;;;0.45;89.67
75656;BME280;64252;51.094;13.714;2022-12-20T05:18:53;100960.41;;;0.48;89.74
75656;BME280;64252;51.094;13.714;2022-12-20T05:21:19;100949.31;;;0.48;89.97
75656;BME280;64252;51.094;13.714;2022-12-20T05:24:04;100961.16;;;0.53;89.68
75656;BME280;64252;51.094;13.714;2022-12-20T05:27:09;100960.66;;;0.51;89.33
75656;BME280;64252;51.094;13.714;2022-12-20T05:29:34;100950.97;;;0.49;90.25
75656;BME280;64252;51.094;13.714;2022-12-20T05:32:00;100962.41;;;0.47;91.05
75656;BME280;64252;51.094;13.714;2022-12-20T05:34:26;100955.69;;;0.48;90.61
75656;BME280;64252;51.094;13.714;2022-12-20T05:36:54;100956.84;;;0.47;90.89
75656;BME280;64252;51.094;13.714;2022-12-20T05:39:22;100946.84;;;0.46;91.57
75656;BME280;64252;51.094;13.714;2022-12-20T05:41:50;100945.72;;;0.47;91.13
75656;BME280;64252;51.094;13.714;2022-12-20T05:44:18;100946.22;;;0.49;91.00
75656;BME280;64252;51.094;13.714;2022-12-20T05:46:48;100943.97;;;0.51;91.33
75656;BME280;64252;51.094;13.714;2022-12-20T05:49:19;100940.03;;;0.52;91.28
75656;BME280;64252;51.094;13.714;2022-12-20T05:51:44;100949.94;;;0.58;90.83
75656;BME280;64252;51.094;13.714;2022-12-20T05:54:21;100929.25;;;0.64;90.28
75656;BME280;64252;51.094;13.714;2022-12-20T05:56:55;100928.31;;;0.69;89.41
75656;BME280;64252;51.094;13.714;2022-12-20T05:59:28;100937.78;;;0.68;89.45
75656;BME280;64252;51.094;13.714;2022-12-20T06:01:54;100924.41;;;0.70;89.51
75656;BME280;64252;51.094;13.714;2022-12-20T06:04:21;100923.38;;;0.79;88.98
75656;BME280;64252;51.094;13.714;2022-12-20T06:06:47;100932.84;;;0.78;88.91
75656;BME280;64252;51.094;13.714;2022-12-20T06:09:17;100930.06;;;0.78;88.97
75656;BME280;64252;51.094;13.714;2022-12-20T06:11:49;100929.97;;;0.83;87.95
75656;BME280;64252;51.094;13.714;2022-12-20T06:14:15;100918.00;;;0.83;88.63
75656;BME280;64252;51.094;13.714;2022-12-20T06:16:46;100931.81;;;0.88;87.79
75656;BME280;64252;51.094;13.714;2022-12-20T06:19:14;100935.41;;;0.88;87.89
75656;BME280;64252;51.094;13.714;2022-12-20T06:21:40;100925.13;;;0.89;87.28
75656;BME280;64252;51.094;13.714;2022-12-20T06:24:08;100924.28;;;0.88;87.66
75656;BME280;64252;51.094;13.714;2022-12-20T06:26:37;100922.34;;;0.89;86.74
75656;BME280;64252;51.094;13.714;2022-12-20T06:29:05;100941.81;;;0.89;87.22
75656;BME280;64252;51.094;13.714;2022-12-20T06:31:43;100937.97;;;0.85;86.82
75656;BME280;64252;51.094;13.714;2022-12-20T06:34:08;100929.84;;;0.88;86.90
75656;BME280;64252;51.094;13.714;2022-12-20T06:36:38;100920.50;;;0.84;86.92
75656;BME280;64252;51.094;13.714;2022-12-20T06:39:08;100924.41;;;0.83;86.72
75656;BME280;64252;51.094;13.714;2022-12-20T06:41:36;100926.06;;;0.84;86.41
75656;BME280;64252;51.094;13.714;2022-12-20T06:44:03;100921.63;;;0.83;86.43
75656;BME280;64252;51.094;13.714;2022-12-20T06:46:29;100929.78;;;0.80;87.02
75656;BME280;64252;51.094;13.714;2022-12-20T06:48:56;100928.94;;;0.79;86.79
75656;BME280;64252;51.094;13.714;2022-12-20T06:51:22;100936.75;;;0.77;86.66
75656;BME280;64252;51.094;13.714;2022-12-20T06:53:47;100938.22;;;0.75;86.67
75656;BME280;64252;51.094;13.714;2022-12-20T06:56:13;100942.41;;;0.72;87.56
75656;BME280;64252;51.094;13.714;2022-12-20T06:58:40;100952.72;;;0.72;86.91
75656;BME280;64252;51.094;13.714;2022-12-20T07:01:05;100961.88;;;0.72;86.94
75656;BME280;64252;51.094;13.714;2022-12-20T07:03:31;100961.88;;;0.72;88.16
75656;BME280;64252;51.094;13.714;2022-12-20T07:05:56;100953.84;;;0.71;87.52
75656;BME280;64252;51.094;13.714;2022-12-20T07:08:23;100953.03;;;0.70;86.86
75656;BME280;64252;51.094;13.714;2022-12-20T07:10:49;100945.19;;;0.72;86.87
75656;BME280;64252;51.094;13.714;2022-12-20T07:13:21;100937.16;;;0.71;87.29
75656;BME280;64252;51.094;13.714;2022-12-20T07:15:47;100937.38;;;0.74;87.08
75656;BME280;64252;51.094;13.714;2022-12-20T07:18:13;100935.94;;;0.77;86.36
75656;BME280;64252;51.094;13.714;2022-12-20T07:20:38;100929.78;;;0.80;86.65
75656;BME280;64252;51.094;13.714;2022-12-20T07:23:04;100928.31;;;0.82;86.23
75656;BME280;64252;51.094;13.714;2022-12-20T07:25:30;100923.13;;;0.89;86.06
75656;BME280;64252;51.094;13.714;2022-12-20T07:27:56;100908.94;;;0.91;85.64
75656;BME280;64252;51.094;13.714;2022-12-20T07:30:21;100909.13;;;0.95;85.47
75656;BME280;64252;51.094;13.714;2022-12-20T07:32:47;100905.84;;;0.93;85.50
75656;BME280;64252;51.094;13.714;2022-12-20T07:35:14;100907.28;;;0.90;85.41
75656;BME280;64252;51.094;13.714;2022-12-20T07:37:40;100908.44;;;0.89;85.51
75656;BME280;64252;51.094;13.714;2022-12-20T07:40:06;100917.28;;;0.91;86.00
75656;BME280;64252;51.094;13.714;2022-12-20T07:42:32;100919.13;;;0.96;85.00
75656;BME280;64252;51.094;13.714;2022-12-20T07:44:58;100922.91;;;1.00;84.86
75656;BME280;64252;51.094;13.714;2022-12-20T07:47:24;100919.63;;;0.98;84.63
75656;BME280;64252;51.094;13.714;2022-12-20T07:49:49;100910.34;;;1.02;84.05
75656;BME280;64252;51.094;13.714;2022-12-20T07:52:16;100915.69;;;1.12;83.57
75656;BME280;64252;51.094;13.714;2022-12-20T07:54:46;100929.25;;;1.14;83.69
75656;BME280;64252;51.094;13.714;2022-12-20T07:57:19;100930.09;;;1.14;83.39
75656;BME280;64252;51.094;13.714;2022-12-20T07:59:49;100936.66;;;1.18;83.08
75656;BME280;64252;51.094;13.714;2022-12-20T08:02:20;100935.84;;;1.18;83.17
75656;BME280;64252;51.094;13.714;2022-12-20T08:04:47;100936.78;;;1.27;82.36
75656;BME280;64252;51.094;13.714;2022-12-20T08:07:13;100935.22;;;1.21;82.71
75656;BME280;64252;51.094;13.714;2022-12-20T08:09:40;100941.63;;;1.21;83.01
75656;BME280;64252;51.094;13.714;2022-12-20T08:12:09;100944.63;;;1.11;83.09
75656;BME280;64252;51.094;13.714;2022-12-20T08:14:37;100928.97;;;1.15;83.16
75656;BME280;64252;51.094;13.714;2022-12-20T08:17:04;100942.03;;;1.15;82.96
75656;BME280;64252;51.094;13.714;2022-12-20T08:19:29;100935.84;;;1.18;83.29
75656;BME280;64252;51.094;13.714;2022-12-20T08:21:55;100927.75;;;1.08;82.94
75656;BME280;64252;51.094;13.714;2022-12-20T08:24:20;100934.81;;;1.14;82.48
75656;BME280;64252;51.094;13.714;2022-12-20T08:26:46;100939.06;;;1.11;82.67
75656;BME280;64252;51.094;13.714;2022-12-20T08:29:12;100930.28;;;1.18;81.74
75656;BME280;64252;51.094;13.714;2022-12-20T08:31:39;100942.03;;;1.15;81.68
75656;BME280;64252;51.094;13.714;2022-12-20T08:34:07;100947.41;;;1.11;82.44
75656;BME280;64252;51.094;13.714;2022-12-20T08:36:32;100946.47;;;1.16;82.42
75656;BME280;64252;51.094;13.714;2022-12-20T08:39:04;100938.75;;;1.13;82.78
75656;BME280;64252;51.094;13.714;2022-12-20T08:41:30;100933.91;;;1.05;82.79
75656;BME280;64252;51.094;13.714;2022-12-20T08:43:57;100938.47;;;1.01;82.48
75656;BME280;64252;51.094;13.714;2022-12-20T08:46:23;100945.78;;;0.97;82.82
75656;BME280;64252;51.094;13.714;2022-12-20T08:48:49;100943.31;;;0.95;82.79
75656;BME280;64252;51.094;13.714;2022-12-20T08:51:14;100934.47;;;0.93;82.39
75656;BME280;64252;51.094;13.714;2022-12-20T08:53:40;100942.00;;;0.93;83.07
75656;BME280;64252;51.094;13.714;2022-12-20T08:56:14;100929.75;;;0.94;83.11
75656;BME280;64252;51.094;13.714;2022-12-20T08:58:40;100944.97;;;0.96;83.03
75656;BME280;64252;51.094;13.714;2022-12-20T09:01:12;100942.25;;;1.05;82.74
75656;BME280;64252;51.094;13.714;2022-12-20T09:03:39;100932.78;;;1.06;81.99
75656;BME280;64252;51.094;13.714;2022-12-20T09:06:14;100937.72;;;1.09;82.47
75656;BME280;64252;51.094;13.714;2022-12-20T09:08:40;100928.66;;;1.17;82.34
75656;BME280;64252;51.094;13.714;2022-12-20T09:11:20;100946.84;;;1.23;81.32
75656;BME280;64252;51.094;13.714;2022-12-20T09:13:48;100940.69;;;1.26;81.74
75656;BME280;64252;51.094;13.714;2022-12-20T09:16:16;100951.84;;;1.48;81.05
75656;BME280;64252;51.094;13.714;2022-12-20T09:18:42;100942.53;;;1.53;80.07
75656;BME280;64252;51.094;13.714;2022-12-20T09:21:09;100956.16;;;1.54;80.38
75656;BME280;64252;51.094;13.714;2022-12-20T09:23:36;100947.28;;;1.52;80.88
75656;BME280;64252;51.094;13.714;2022-12-20T09:26:04;100947.91;;;1.49;80.55
75656;BME280;64252;51.094;13.714;2022-12-20T09:28:31;100942.34;;;1.49;80.41
75656;BME280;64252;51.094;13.714;2022-12-20T09:31:00;100941.47;;;1.62;80.51
75656;BME280;64252;51.094;13.714;2022-12-20T09:33:27;100942.88;;;1.73;78.93
75656;BME280;64252;51.094;13.714;2022-12-20T09:35:53;100941.59;;;1.80;79.41
75656;BME280;64252;51.094;13.714;2022-12-20T09:38:21;100944.25;;;2.07;79.10
75656;BME280;64252;51.094;13.714;2022-12-20T09:40:48;100935.50;;;2.00;78.85
75656;BME280;64252;51.094;13.714;2022-12-20T09:43:16;100937.25;;;2.18;78.25
75656;BME280;64252;51.094;13.714;2022-12-20T09:45:44;100950.31;;;2.09;78.15
75656;BME280;64252;51.094;13.714;2022-12-20T09:48:23;100944.16;;;1.98;78.19
75656;BME280;64252;51.094;13.714;2022-12-20T09:50:59;100942.72;;;2.01;78.51
75656;BME280;64252;51.094;13.714;2022-12-20T09:56:31;100950.56;;;1.99;78.44
75656;BME280;64252;51.094;13.714;2022-12-20T09:59:01;100941.84;;;1.92;78.52
75656;BME280;64252;51.094;13.714;2022-12-20T10:01:29;100938.06;;;2.18;78.00
75656;BME280;64252;51.094;13.714;2022-12-20T10:03:57;100948.66;;;2.39;77.83
75656;BME280;64252;51.094;13.714;2022-12-20T10:09:39;100957.06;;;2.47;76.55
75656;BME280;64252;51.094;13.714;2022-12-20T10:12:23;100954.97;;;2.53;76.75
75656;BME280;64252;51.094;13.714;2022-12-20T10:18:08;100952.84;;;2.58;76.40
75656;BME280;64252;51.094;13.714;2022-12-20T10:20:54;100940.75;;;2.32;76.56
75656;BME280;64252;51.094;13.714;2022-12-20T10:24:06;100927.56;;;2.15;77.94
75656;BME280;64252;51.094;13.714;2022-12-20T10:26:12;100934.75;;;1.86;78.89
75656;BME280;64252;51.094;13.714;2022-12-20T10:28:38;100928.53;;;1.89;78.13
75656;BME280;64252;51.094;13.714;2022-12-20T10:31:16;100932.75;;;1.77;79.41
75656;BME280;64252;51.094;13.714;2022-12-20T10:33:43;100929.44;;;1.75;79.23
75656;BME280;64252;51.094;13.714;2022-12-20T10:36:23;100927.75;;;1.88;79.02
75656;BME280;64252;51.094;13.714;2022-12-20T10:38:52;100930.84;;;1.87;79.10
75656;BME280;64252;51.094;13.714;2022-12-20T10:41:44;100932.75;;;1.77;78.91
75656;BME280;64252;51.094;13.714;2022-12-20T10:44:22;100921.72;;;1.95;78.21
75656;BME280;64252;51.094;13.714;2022-12-20T10:46:52;100912.72;;;1.98;78.42
75656;BME280;64252;51.094;13.714;2022-12-20T10:49:32;100899.25;;;1.91;78.54
75656;BME280;64252;51.094;13.714;2022-12-20T10:54:35;100911.34;;;1.87;78.87
75656;BME280;64252;51.094;13.714;2022-12-20T10:57:29;100890.22;;;1.86;79.12
75656;BME280;64252;51.094;13.714;2022-12-20T11:00:01;100905.91;;;1.82;79.07
75656;BME280;64252;51.094;13.714;2022-12-20T11:10:19;100870.50;;;1.73;79.48
75656;BME280;64252;51.094;13.714;2022-12-20T11:12:53;100867.81;;;1.91;78.86
75656;BME280;64252;51.094;13.714;2022-12-20T11:15:22;100849.31;;;1.95;78.78
75656;BME280;64252;51.094;13.714;2022-12-20T11:17:58;100848.47;;;1.94;78.73
75656;BME280;64252;51.094;13.714;2022-12-20T11:23:38;100838.28;;;2.20;77.92
75656;BME280;64252;51.094;13.714;2022-12-20T11:29:01;100841.13;;;2.38;76.99
75656;BME280;64252;51.094;13.714;2022-12-20T11:32:25;100843.31;;;2.67;76.17
75656;BME280;64252;51.094;13.714;2022-12-20T11:35:13;100831.97;;;2.54;76.48
75656;BME280;64252;51.094;13.714;2022-12-20T11:38:05;100828.69;;;2.52;76.36
75656;BME280;64252;51.094;13.714;2022-12-20T11:40:47;100825.38;;;2.42;77.10
75656;BME280;64252;51.094;13.714;2022-12-20T11:46:39;100798.38;;;2.03;78.86
75656;BME280;64252;51.094;13.714;2022-12-20T11:51:48;100802.59;;;1.83;78.71
75656;BME280;64252;51.094;13.714;2022-12-20T11:54:35;100807.19;;;1.88;78.81
75656;BME280;64252;51.094;13.714;2022-12-20T11:57:26;100813.59;;;1.88;79.17
75656;BME280;64252;51.094;13.714;2022-12-20T11:59:57;100805.88;;;1.94;78.96
75656;BME280;64252;51.094;13.714;2022-12-20T12:02:58;100807.38;;;1.91;78.99
75656;BME280;64252;51.094;13.714;2022-12-20T12:05:40;100800.41;;;2.19;78.07
75656;BME280;64252;51.094;13.714;2022-12-20T12:08:14;100791.06;;;2.07;77.73
75656;BME280;64252;51.094;13.714;2022-12-20T12:10:50;100800.53;;;2.06;77.69
75656;BME280;64252;51.094;13.714;2022-12-20T12:13:28;100787.75;;;2.05;78.36
75656;BME280;64252;51.094;13.714;2022-12-20T12:16:15;100780.53;;;2.04;78.48
75656;BME280;64252;51.094;13.714;2022-12-20T12:18:42;100780.97;;;1.89;78.41
75656;BME280;64252;51.094;13.714;2022-12-20T12:23:58;100761.94;;;1.73;79.52
75656;BME280;64252;51.094;13.714;2022-12-20T12:26:30;100774.53;;;1.80;79.32
75656;BME280;64252;51.094;13.714;2022-12-20T12:29:02;100768.47;;;1.69;79.54
75656;BME280;64252;51.094;13.714;2022-12-20T12:31:33;100756.13;;;1.61;79.68
75656;BME280;64252;51.094;13.714;2022-12-20T12:34:28;100752.72;;;1.64;79.59
75656;BME280;64252;51.094;13.714;2022-12-20T12:46:09;100741.13;;;1.40;80.11
75656;BME280;64252;51.094;13.714;2022-12-20T12:48:51;100750.94;;;1.38;80.48
75656;BME280;64252;51.094;13.714;2022-12-20T12:51:51;100748.41;;;1.50;80.38
75656;BME280;64252;51.094;13.714;2022-12-20T12:54:25;100735.22;;;1.42;80.58
75656;BME280;64252;51.094;13.714;2022-12-20T12:56:59;100750.31;;;1.41;80.58
75656;BME280;64252;51.094;13.714;2022-12-20T13:10:04;100729.22;;;1.48;80.56
75656;BME280;64252;51.094;13.714;2022-12-20T13:20:34;100721.38;;;1.50;80.44
75656;BME280;64252;51.094;13.714;2022-12-20T13:25:40;100715.97;;;1.45;80.51
75656;BME280;64252;51.094;13.714;2022-12-20T13:30:46;100697.81;;;1.56;80.75
75656;BME280;64252;51.094;13.714;2022-12-20T13:33:23;100691.41;;;1.47;80.51
75656;BME280;64252;51.094;13.714;2022-12-20T13:36:48;100688.63;;;1.47;80.92
75656;BME280;64252;51.094;13.714;2022-12-20T13:38:52;100697.09;;;1.42;81.47
75656;BME280;64252;51.094;13.714;2022-12-20T13:41:20;100688.28;;;1.40;81.60
75656;BME280;64252;51.094;13.714;2022-12-20T13:43:51;100683.84;;;1.39;80.52
75656;BME280;64252;51.094;13.714;2022-12-20T13:46:27;100673.69;;;1.35;81.43
75656;BME280;64252;51.094;13.714;2022-12-20T13:49:17;100671.03;;;1.29;81.35
75656;BME280;64252;51.094;13.714;2022-12-20T13:51:44;100676.78;;;1.33;80.98
75656;BME280;64252;51.094;13.714;2022-12-20T13:54:18;100682.16;;;1.29;81.64
75656;BME280;64252;51.094;13.714;2022-12-20T13:56:47;100680.34;;;1.25;81.59
75656;BME280;64252;51.094;13.714;2022-12-20T13:59:33;100678.09;;;1.27;81.34
75656;BME280;64252;51.094;13.714;2022-12-20T14:02:03;100675.59;;;1.25;81.24
75656;BME280;64252;51.094;13.714;2022-12-20T14:04:40;100666.28;;;1.21;81.17
75656;BME280;64252;51.094;13.714;2022-12-20T14:07:08;100666.75;;;1.23;81.63
75656;BME280;64252;51.094;13.714;2022-12-20T14:09:37;100668.06;;;1.17;82.22
75656;BME280;64252;51.094;13.714;2022-12-20T14:12:04;100666.41;;;1.16;82.01
75656;BME280;64252;51.094;13.714;2022-12-20T14:14:35;100667.22;;;1.17;81.81
75656;BME280;64252;51.094;13.714;2022-12-20T14:17:35;100672.28;;;1.15;82.41
75656;BME280;64252;51.094;13.714;2022-12-20T14:20:30;100667.97;;;1.09;81.87
75656;BME280;64252;51.094;13.714;2022-12-20T14:23:05;100668.50;;;1.11;81.94
75656;BME280;64252;51.094;13.714;2022-12-20T14:30:42;100650.53;;;1.17;81.22
75656;BME280;64252;51.094;13.714;2022-12-20T14:33:30;100648.06;;;1.15;82.13
75656;BME280;64252;51.094;13.714;2022-12-20T14:38:35;100638.25;;;1.18;82.57
75656;BME280;64252;51.094;13.714;2022-12-20T14:41:00;100633.19;;;1.20;81.98